sensor_id;sensor_type;location;lat;lon;timestamp;P1;durP1;ratioP1;P2;durP2;ratioP2
10795;SDS011;5450;42.994;23.372;2022-09-01T03:52:07;5.80;;;5.40;;
10795;SDS011;5450;42.994;23.372;2022-09-01T03:54:37;6.73;;;6.23;;
10795;SDS011;5450;42.994;23.372;2022-09-01T03:57:10;7.33;;;6.73;;
10795;SDS011;5450;42.994;23.372;2022-09-01T06:02:37;4.93;;;4.63;;
10795;SDS011;5450;42.994;23.372;2022-09-01T09:23:30;7.45;;;5.20;;
10795;SDS011;5450;42.994;23.372;2022-09-01T09:27:07;5.20;;;4.75;;
10795;SDS011;5450;42.994;23.372;2022-09-01T09:56:28;5.70;;;5.20;;
10795;SDS011;5450;42.994;23.372;2022-09-01T09:59:08;5.70;;;5.18;;
10795;SDS011;5450;42.994;23.372;2022-09-01T10:37:00;5.65;;;5.00;;
10795;SDS011;5450;42.994;23.372;2022-09-01T10:40:33;5.13;;;4.80;;
10795;SDS011;5450;42.994;23.372;2022-09-01T10:46:40;5.13;;;4.57;;
10795;SDS011;5450;42.994;23.372;2022-09-01T10:47:23;5.05;;;4.75;;
10795;SDS011;5450;42.994;23.372;2022-09-01T10:50:22;4.93;;;4.57;;
10795;SDS011;5450;42.994;23.372;2022-09-01T10:53:07;5.15;;;4.75;;
10795;SDS011;5450;42.994;23.372;2022-09-01T10:55:57;5.15;;;4.80;;
10795;SDS011;5450;42.994;23.372;2022-09-01T11:02:17;6.22;;;4.85;;
10795;SDS011;5450;42.994;23.372;2022-09-01T11:08:40;5.28;;;4.97;;
10795;SDS011;5450;42.994;23.372;2022-09-01T11:11:36;5.28;;;4.88;;
10795;SDS011;5450;42.994;23.372;2022-09-01T11:14:50;5.32;;;4.93;;
10795;SDS011;5450;42.994;23.372;2022-09-01T11:17:31;5.47;;;5.07;;
10795;SDS011;5450;42.994;23.372;2022-09-01T11:20:09;6.40;;;5.80;;
10795;SDS011;5450;42.994;23.372;2022-09-01T11:23:03;5.25;;;4.85;;
10795;SDS011;5450;42.994;23.372;2022-09-01T11:25:36;5.70;;;5.10;;
10795;SDS011;5450;42.994;23.372;2022-09-01T11:31:15;5.55;;;5.10;;
10795;SDS011;5450;42.994;23.372;2022-09-01T11:34:16;5.40;;;4.90;;
10795;SDS011;5450;42.994;23.372;2022-09-01T11:37:01;5.57;;;5.07;;
10795;SDS011;5450;42.994;23.372;2022-09-01T11:39:54;5.68;;;5.32;;
10795;SDS011;5450;42.994;23.372;2022-09-01T11:42:37;5.20;;;4.90;;
10795;SDS011;5450;42.994;23.372;2022-09-01T11:45:16;5.30;;;5.00;;
10795;SDS011;5450;42.994;23.372;2022-09-01T11:49:02;5.57;;;5.18;;
10795;SDS011;5450;42.994;23.372;2022-09-01T11:51:46;5.28;;;4.88;;
10795;SDS011;5450;42.994;23.372;2022-09-01T11:54:38;5.65;;;5.15;;
10795;SDS011;5450;42.994;23.372;2022-09-01T11:57:20;5.65;;;5.05;;
10795;SDS011;5450;42.994;23.372;2022-09-01T12:00:34;5.82;;;5.10;;
10795;SDS011;5450;42.994;23.372;2022-09-01T12:03:04;5.38;;;5.07;;
10795;SDS011;5450;42.994;23.372;2022-09-01T12:05:51;5.22;;;4.93;;
10795;SDS011;5450;42.994;23.372;2022-09-01T12:08:26;5.50;;;5.10;;
10795;SDS011;5450;42.994;23.372;2022-09-01T12:11:26;6.35;;;5.75;;
10795;SDS011;5450;42.994;23.372;2022-09-01T12:14:17;5.95;;;5.28;;
10795;SDS011;5450;42.994;23.372;2022-09-01T12:17:11;5.57;;;5.15;;
10795;SDS011;5450;42.994;23.372;2022-09-01T12:19:48;5.13;;;4.70;;
10795;SDS011;5450;42.994;23.372;2022-09-01T12:22:48;5.47;;;4.85;;
10795;SDS011;5450;42.994;23.372;2022-09-01T12:25:21;5.75;;;4.82;;
10795;SDS011;5450;42.994;23.372;2022-09-01T12:27:54;5.90;;;5.50;;
10795;SDS011;5450;42.994;23.372;2022-09-01T12:30:26;6.18;;;5.43;;
10795;SDS011;5450;42.994;23.372;2022-09-01T12:33:08;5.45;;;4.90;;
10795;SDS011;5450;42.994;23.372;2022-09-01T12:35:51;5.70;;;5.30;;
10795;SDS011;5450;42.994;23.372;2022-09-01T12:38:36;5.28;;;4.88;;
10795;SDS011;5450;42.994;23.372;2022-09-01T12:47:45;6.03;;;5.22;;
10795;SDS011;5450;42.994;23.372;2022-09-01T12:50:36;5.97;;;5.57;;
10795;SDS011;5450;42.994;23.372;2022-09-01T12:53:27;5.47;;;5.10;;
10795;SDS011;5450;42.994;23.372;2022-09-01T12:55:58;6.10;;;5.70;;
10795;SDS011;5450;42.994;23.372;2022-09-01T12:58:41;5.70;;;5.30;;
10795;SDS011;5450;42.994;23.372;2022-09-01T13:01:23;6.53;;;6.10;;
10795;SDS011;5450;42.994;23.372;2022-09-01T13:04:10;5.93;;;5.43;;
10795;SDS011;5450;42.994;23.372;2022-09-01T13:06:40;6.35;;;5.75;;
10795;SDS011;5450;42.994;23.372;2022-09-01T13:09:07;5.85;;;5.45;;
10795;SDS011;5450;42.994;23.372;2022-09-01T13:11:34;5.75;;;5.18;;
10795;SDS011;5450;42.994;23.372;2022-09-01T13:14:04;6.23;;;5.70;;
10795;SDS011;5450;42.994;23.372;2022-09-01T13:16:32;6.03;;;5.53;;
10795;SDS011;5450;42.994;23.372;2022-09-01T13:19:01;6.32;;;5.78;;
10795;SDS011;5450;42.994;23.372;2022-09-01T13:21:32;6.10;;;5.70;;
10795;SDS011;5450;42.994;23.372;2022-09-01T13:24:00;5.95;;;5.30;;
10795;SDS011;5450;42.994;23.372;2022-09-01T13:27:04;5.97;;;5.47;;
10795;SDS011;5450;42.994;23.372;2022-09-01T13:29:39;5.95;;;5.57;;
10795;SDS011;5450;42.994;23.372;2022-09-01T13:32:07;6.00;;;5.50;;
10795;SDS011;5450;42.994;23.372;2022-09-01T13:34:34;6.05;;;5.43;;
10795;SDS011;5450;42.994;23.372;2022-09-01T13:37:07;5.82;;;5.43;;
10795;SDS011;5450;42.994;23.372;2022-09-01T13:39:35;5.55;;;5.25;;
10795;SDS011;5450;42.994;23.372;2022-09-01T13:42:04;4.80;;;4.45;;
10795;SDS011;5450;42.994;23.372;2022-09-01T13:44:36;5.40;;;5.10;;
10795;SDS011;5450;42.994;23.372;2022-09-01T13:47:15;6.15;;;5.55;;
10795;SDS011;5450;42.994;23.372;2022-09-01T13:50:29;6.03;;;5.53;;
10795;SDS011;5450;42.994;23.372;2022-09-01T13:53:19;6.20;;;5.72;;
10795;SDS011;5450;42.994;23.372;2022-09-01T13:59:16;6.63;;;6.03;;
10795;SDS011;5450;42.994;23.372;2022-09-01T14:37:07;6.55;;;6.05;;
10795;SDS011;5450;42.994;23.372;2022-09-01T14:40:14;6.07;;;5.53;;
10795;SDS011;5450;42.994;23.372;2022-09-01T14:50:20;6.22;;;5.82;;
10795;SDS011;5450;42.994;23.372;2022-09-01T17:01:52;6.85;;;6.25;;
10795;SDS011;5450;42.994;23.372;2022-09-01T17:07:58;6.50;;;5.90;;
10795;SDS011;5450;42.994;23.372;2022-09-01T17:16:53;6.25;;;5.75;;
10795;SDS011;5450;42.994;23.372;2022-09-01T17:19:37;6.15;;;5.60;;
10795;SDS011;5450;42.994;23.372;2022-09-01T17:39:54;6.22;;;5.85;;
10795;SDS011;5450;42.994;23.372;2022-09-01T17:42:58;6.93;;;6.28;;
10795;SDS011;5450;42.994;23.372;2022-09-01T17:45:48;6.85;;;6.20;;
10795;SDS011;5450;42.994;23.372;2022-09-01T17:48:42;7.22;;;6.72;;
10795;SDS011;5450;42.994;23.372;2022-09-01T18:09:00;7.45;;;6.95;;
10795;SDS011;5450;42.994;23.372;2022-09-01T18:14:41;7.93;;;7.10;;
10795;SDS011;5450;42.994;23.372;2022-09-01T18:15:18;6.80;;;6.30;;
10795;SDS011;5450;42.994;23.372;2022-09-01T18:21:22;8.10;;;6.57;;
10795;SDS011;5450;42.994;23.372;2022-09-01T18:24:03;6.35;;;5.75;;
10795;SDS011;5450;42.994;23.372;2022-09-01T18:26:56;6.67;;;6.27;;
10795;SDS011;5450;42.994;23.372;2022-09-01T18:29:33;7.35;;;6.88;;
10795;SDS011;5450;42.994;23.372;2022-09-01T18:32:17;7.13;;;6.43;;
10795;SDS011;5450;42.994;23.372;2022-09-01T18:35:15;7.68;;;7.07;;
10795;SDS011;5450;42.994;23.372;2022-09-01T18:38:31;7.53;;;6.82;;
10795;SDS011;5450;42.994;23.372;2022-09-01T18:58:27;7.80;;;7.27;;
10795;SDS011;5450;42.994;23.372;2022-09-01T19:01:15;7.47;;;6.80;;
10795;SDS011;5450;42.994;23.372;2022-09-01T19:05:22;8.00;;;7.40;;
10795;SDS011;5450;42.994;23.372;2022-09-01T19:10:47;8.23;;;7.53;;
10795;SDS011;5450;42.994;23.372;2022-09-01T19:13:43;7.60;;;6.90;;
10795;SDS011;5450;42.994;23.372;2022-09-01T19:16:24;7.50;;;6.80;;
10795;SDS011;5450;42.994;23.372;2022-09-01T19:19:45;8.27;;;7.07;;
